Cottonwd Hgts, Utah
Current Conditions -  °F | °C
As of 11:53 PM on Wednesday 17 Dec 2014 (Local Time) from KSLC Reporting Station
Overcast Overcast  
Wind Chill: -1°   Ceiling: 8000
Heat Index:   Visibility: 8mi
Dew Point: -1°   Wind: 5mph
Humidity: 89%   Direction: 110°ESE
Pressure: 30.07"   Gusts: NA
Location:  40.615°N, 111.891°W
Report Text: KSLC 180653Z 11004KT 8SM BKN080 OVC090 01/M01 A3007 RMK AO2 SLP186 T00111006 400501011 $
Loading
Personal Weather Stations






























Interactive Weather Map New forecast layout! Learn more

10-Day Weather Forecast

Advertisements
Track Severe Weather on mobile